createdAt,value
2023-01-01T00:01:23.408Z,95866.53
2023-01-01T00:03:51.920Z,95853.88
2023-01-01T00:06:20.271Z,95855.81
2023-01-01T00:09:10.122Z,95851.00
2023-01-01T00:11:38.223Z,95860.72
2023-01-01T00:14:12.068Z,95859.66
2023-01-01T00:16:40.878Z,95860.50
2023-01-01T00:19:09.537Z,95871.19
2023-01-01T00:21:37.598Z,95877.56
2023-01-01T00:24:08.295Z,95893.41
2023-01-01T00:26:36.387Z,95901.34
2023-01-01T00:29:05.224Z,95906.34
2023-01-01T00:31:33.445Z,95901.63
2023-01-01T00:34:01.608Z,95909.78
2023-01-01T00:36:31.018Z,95903.59
2023-01-01T00:38:59.368Z,95909.50
2023-01-01T00:41:28.711Z,95907.63
2023-01-01T00:43:56.715Z,95914.88
2023-01-01T00:46:24.846Z,95911.84
2023-01-01T00:48:52.863Z,95915.63
2023-01-01T00:51:20.831Z,95909.81
2023-01-01T00:53:48.763Z,95907.53
2023-01-01T00:56:16.813Z,95914.00
2023-01-01T00:59:00.641Z,95910.72
2023-01-01T01:01:29.849Z,95911.84
2023-01-01T01:03:58.173Z,95914.50
2023-01-01T01:06:26.268Z,95899.19
2023-01-01T01:08:54.454Z,95900.66
2023-01-01T01:11:24.969Z,95895.16
2023-01-01T01:13:56.632Z,95888.38
2023-01-01T01:16:26.930Z,95888.66
2023-01-01T01:18:57.625Z,95902.59
2023-01-01T01:21:26.298Z,95892.97
2023-01-01T01:23:55.105Z,95895.75
2023-01-01T01:26:25.097Z,95896.59
2023-01-01T01:28:55.327Z,95903.94
2023-01-01T01:31:26.208Z,95902.00
2023-01-01T01:33:54.165Z,95904.44
2023-01-01T01:36:22.685Z,95904.94
2023-01-01T01:38:50.875Z,95903.28
2023-01-01T01:41:29.514Z,95914.25
2023-01-01T01:44:01.651Z,95908.31
2023-01-01T01:46:34.627Z,95911.66
2023-01-01T01:49:06.562Z,95917.69
2023-01-01T01:51:38.072Z,95922.88
2023-01-01T01:54:10.180Z,95923.59
2023-01-01T01:56:43.992Z,95928.91
2023-01-01T01:59:13.854Z,95922.53
2023-01-01T02:01:42.474Z,95917.13
2023-01-01T02:04:10.711Z,95924.13
2023-01-01T02:06:39.979Z,95912.81
2023-01-01T02:09:09.618Z,95899.25
2023-01-01T02:11:37.933Z,95897.41
2023-01-01T02:14:06.381Z,95893.00
2023-01-01T02:16:44.054Z,95895.34
2023-01-01T02:19:19.986Z,95898.72
2023-01-01T02:22:02.904Z,95887.78
2023-01-01T02:24:44.787Z,95891.16
2023-01-01T02:27:22.208Z,95877.38
2023-01-01T02:29:54.637Z,95882.81
2023-01-01T02:32:25.957Z,95883.63
2023-01-01T02:34:59.209Z,95880.66
2023-01-01T02:37:30.405Z,95875.22
2023-01-01T02:40:00.747Z,95877.94
2023-01-01T02:42:30.459Z,95871.97
2023-01-01T02:45:00.976Z,95862.75
2023-01-01T02:47:28.739Z,95865.75
2023-01-01T02:50:02.139Z,95864.38
2023-01-01T02:52:46.893Z,95868.16
2023-01-01T02:55:26.819Z,95872.47
2023-01-01T02:58:22.999Z,95873.56
2023-01-01T03:00:54.400Z,95875.16
2023-01-01T03:03:29.834Z,95871.78
2023-01-01T03:06:18.962Z,95873.34
2023-01-01T03:08:53.666Z,95881.63
2023-01-01T03:11:25.907Z,95875.78
2023-01-01T03:14:02.505Z,95876.88
2023-01-01T03:16:37.762Z,95870.75
2023-01-01T03:19:12.173Z,95871.72
2023-01-01T03:21:45.311Z,95881.59
2023-01-01T03:24:20.846Z,95889.03
2023-01-01T03:26:51.156Z,95892.88
2023-01-01T03:29:19.696Z,95891.94
2023-01-01T03:31:51.318Z,95899.13
2023-01-01T03:34:24.507Z,95904.09
2023-01-01T03:36:58.177Z,95911.94
2023-01-01T03:39:28.917Z,95909.91
2023-01-01T03:42:05.882Z,95920.31
2023-01-01T03:44:37.095Z,95920.81
2023-01-01T03:47:07.612Z,95925.19
2023-01-01T03:49:36.017Z,95931.88
2023-01-01T03:52:17.130Z,95931.69
2023-01-01T03:54:56.743Z,95947.72
2023-01-01T03:57:32.162Z,95947.72
2023-01-01T04:00:08.034Z,95951.13
2023-01-01T04:02:41.753Z,95949.69
2023-01-01T04:05:11.286Z,95960.84
2023-01-01T04:10:18.101Z,95952.44
2023-01-01T04:12:48.402Z,95957.41
2023-01-01T04:15:16.751Z,95957.66
2023-01-01T04:17:46.229Z,95955.09
2023-01-01T04:20:15.004Z,95949.16
2023-01-01T04:22:42.687Z,95945.09
2023-01-01T04:25:12.132Z,95942.38
2023-01-01T04:27:40.678Z,95950.25
2023-01-01T04:30:11.174Z,95945.75
2023-01-01T04:32:38.981Z,95945.09
2023-01-01T04:35:09.891Z,95959.81
2023-01-01T04:37:37.946Z,95959.06
2023-01-01T04:40:07.267Z,95949.53
2023-01-01T04:42:35.242Z,95958.06
2023-01-01T04:45:03.045Z,95963.56
2023-01-01T04:47:31.059Z,95968.59
2023-01-01T04:49:58.798Z,95976.22
2023-01-01T04:52:27.875Z,95969.31
2023-01-01T04:54:55.703Z,95979.75
2023-01-01T04:57:23.547Z,95977.06
2023-01-01T04:59:51.387Z,95981.06
2023-01-01T05:02:19.196Z,95985.25
2023-01-01T05:04:47.064Z,95980.34
2023-01-01T05:07:14.797Z,95986.19
2023-01-01T05:09:43.929Z,95975.81
2023-01-01T05:12:11.689Z,95978.03
2023-01-01T05:14:39.393Z,95985.16
2023-01-01T05:17:07.207Z,95988.19
2023-01-01T05:19:34.982Z,95993.56
2023-01-01T05:22:08.590Z,95996.72
2023-01-01T05:24:38.128Z,96002.44
2023-01-01T05:27:08.642Z,96004.22
2023-01-01T05:29:36.383Z,95992.16
2023-01-01T05:32:04.308Z,95994.94
2023-01-01T05:36:58.683Z,95977.03
2023-01-01T05:39:26.404Z,95974.16
2023-01-01T05:41:54.083Z,95962.97
2023-01-01T05:44:23.202Z,95954.63
2023-01-01T05:46:50.904Z,95952.13
2023-01-01T05:49:18.641Z,95949.88
2023-01-01T05:51:46.486Z,95953.13
2023-01-01T05:56:40.819Z,95949.19
2023-01-01T05:59:08.541Z,95953.81
2023-01-01T06:01:43.477Z,95962.78
2023-01-01T06:04:13.785Z,95960.91
2023-01-01T06:06:41.683Z,95970.41
2023-01-01T06:09:11.435Z,95972.03
2023-01-01T06:11:39.341Z,95973.09
2023-01-01T06:14:07.092Z,95980.41
2023-01-01T06:16:34.888Z,95976.09
2023-01-01T06:19:04.085Z,95978.25
2023-01-01T06:21:31.762Z,95983.94
2023-01-01T06:24:00.920Z,95982.28
2023-01-01T06:26:30.391Z,95984.75
2023-01-01T06:28:58.828Z,95983.13
2023-01-01T06:31:27.794Z,95978.25
2023-01-01T06:33:55.536Z,95982.84
2023-01-01T06:36:26.427Z,95984.19
2023-01-01T06:38:56.518Z,95983.09
2023-01-01T06:41:26.357Z,95988.78
2023-01-01T06:43:55.888Z,95993.16
2023-01-01T06:46:26.768Z,96001.28
2023-01-01T06:48:55.929Z,96002.09
2023-01-01T06:51:28.025Z,95986.88
2023-01-01T06:53:58.699Z,95982.78
2023-01-01T06:56:26.863Z,95983.84
2023-01-01T06:58:54.739Z,95998.44
2023-01-01T07:01:24.368Z,96006.06
2023-01-01T07:03:53.936Z,96006.88
2023-01-01T07:06:22.086Z,96010.38
2023-01-01T07:08:51.476Z,96007.03
2023-01-01T07:11:19.577Z,96015.50
2023-01-01T07:13:47.329Z,96025.38
2023-01-01T07:16:15.785Z,96020.72
2023-01-01T07:18:43.565Z,96023.44
2023-01-01T07:21:29.647Z,96034.84
2023-01-01T07:24:00.563Z,96040.63
2023-01-01T07:26:29.788Z,96047.22
2023-01-01T07:29:06.003Z,96031.09
2023-01-01T07:31:34.864Z,96044.66
2023-01-01T07:34:02.825Z,96038.69
2023-01-01T07:36:30.584Z,96041.34
2023-01-01T07:38:59.761Z,96042.72
2023-01-01T07:41:27.574Z,96051.97
2023-01-01T07:43:55.301Z,96059.66
2023-01-01T07:46:23.129Z,96054.84
2023-01-01T07:48:50.918Z,96064.94
2023-01-01T07:51:18.680Z,96050.63
2023-01-01T07:53:46.579Z,96055.50
2023-01-01T07:56:15.747Z,96061.66
2023-01-01T07:58:43.746Z,96065.69
2023-01-01T08:01:12.692Z,96072.91
2023-01-01T08:03:40.549Z,96080.84
2023-01-01T08:06:10.278Z,96081.03
2023-01-01T08:08:38.547Z,96082.88
2023-01-01T08:11:06.974Z,96085.59
2023-01-01T08:13:36.398Z,96087.91
2023-01-01T08:16:07.340Z,96079.38
2023-01-01T08:18:35.138Z,96085.16
2023-01-01T08:21:03.522Z,96082.66
2023-01-01T08:23:31.327Z,96085.75
2023-01-01T08:26:03.424Z,96084.56
2023-01-01T08:28:31.708Z,96083.41
2023-01-01T08:31:01.343Z,96081.22
2023-01-01T08:33:29.481Z,96078.75
2023-01-01T08:35:57.547Z,96086.97
2023-01-01T08:38:25.566Z,96085.22
2023-01-01T08:40:53.527Z,96088.25
2023-01-01T08:43:21.402Z,96082.50
2023-01-01T08:45:49.314Z,96080.03
2023-01-01T08:48:18.496Z,96076.22
2023-01-01T08:50:46.200Z,96079.34
2023-01-01T08:53:14.007Z,96072.38
2023-01-01T08:55:41.765Z,96079.47
2023-01-01T08:58:09.469Z,96078.97
2023-01-01T09:00:37.384Z,96068.25
2023-01-01T09:03:05.350Z,96070.81
2023-01-01T09:05:34.566Z,96071.44
2023-01-01T09:08:02.325Z,96078.25
2023-01-01T09:10:30.134Z,96074.97
2023-01-01T09:12:57.893Z,96077.34
2023-01-01T09:15:25.687Z,96079.50
2023-01-01T09:17:53.569Z,96083.81
2023-01-01T09:20:21.613Z,96081.25
2023-01-01T09:22:51.018Z,96085.13
2023-01-01T09:25:19.006Z,96081.38
2023-01-01T09:27:46.908Z,96091.03
2023-01-01T09:30:15.522Z,96096.72
2023-01-01T09:32:43.379Z,96097.81
2023-01-01T09:35:11.295Z,96101.47
2023-01-01T09:37:39.375Z,96097.16
2023-01-01T09:40:22.853Z,96102.84
2023-01-01T09:43:01.559Z,96095.28
2023-01-01T09:45:32.717Z,96096.53
2023-01-01T09:48:06.327Z,96091.94
2023-01-01T09:50:39.344Z,96097.31
2023-01-01T09:53:14.815Z,96088.91
2023-01-01T09:55:47.757Z,96085.09
2023-01-01T09:58:16.603Z,96077.31
2023-01-01T10:00:48.459Z,96080.13
2023-01-01T10:03:37.766Z,96085.91
2023-01-01T10:06:16.901Z,96088.63
2023-01-01T10:08:58.475Z,96083.84
2023-01-01T10:11:40.550Z,96081.50
2023-01-01T10:14:19.339Z,96074.31
2023-01-01T10:16:50.533Z,96068.78
2023-01-01T10:19:27.602Z,96058.59
2023-01-01T10:22:01.422Z,96056.16
2023-01-01T10:24:40.262Z,96049.03
2023-01-01T10:27:20.486Z,96044.00
2023-01-01T10:29:58.030Z,96047.28
2023-01-01T10:32:31.938Z,96052.16
2023-01-01T10:35:02.148Z,96052.16
2023-01-01T10:37:35.296Z,96051.16
2023-01-01T10:40:07.955Z,96045.94
2023-01-01T10:42:37.322Z,96044.78
2023-01-01T10:45:06.321Z,96028.50
2023-01-01T10:47:34.186Z,96035.34
2023-01-01T10:50:07.611Z,96039.09
2023-01-01T10:52:38.248Z,96034.41
2023-01-01T10:55:09.449Z,96031.44
2023-01-01T10:57:40.442Z,96033.78
2023-01-01T11:00:20.648Z,96033.09
2023-01-01T11:02:48.643Z,96032.19
2023-01-01T11:05:22.023Z,96025.09
2023-01-01T11:07:50.888Z,96025.22
2023-01-01T11:10:21.320Z,96028.50
2023-01-01T11:13:08.126Z,96020.25
2023-01-01T11:15:41.313Z,96026.22
2023-01-01T11:18:16.176Z,96017.41
2023-01-01T11:20:44.804Z,96004.69
2023-01-01T11:23:20.929Z,96008.81
2023-01-01T11:26:00.125Z,96005.47
2023-01-01T11:28:31.836Z,96005.97
2023-01-01T11:31:08.081Z,95997.78
2023-01-01T11:33:37.772Z,95991.94
2023-01-01T11:36:07.290Z,95993.56
2023-01-01T11:38:35.561Z,95992.38
2023-01-01T11:41:06.169Z,95991.53
2023-01-01T11:43:41.542Z,95992.81
2023-01-01T11:46:13.158Z,95985.34
2023-01-01T11:48:44.579Z,95976.28
2023-01-01T11:51:28.990Z,95975.72
2023-01-01T11:54:11.655Z,95971.81
2023-01-01T11:56:40.802Z,95977.34
2023-01-01T11:59:16.801Z,95964.78
2023-01-01T12:01:48.374Z,95963.47
2023-01-01T12:04:21.059Z,95962.34
2023-01-01T12:06:53.481Z,95954.09
2023-01-01T12:09:25.935Z,95954.91
2023-01-01T12:11:58.506Z,95955.09
2023-01-01T12:14:36.269Z,95957.28
2023-01-01T12:17:06.488Z,95955.03
2023-01-01T12:19:41.294Z,95954.53
2023-01-01T12:22:16.345Z,95948.38
2023-01-01T12:24:45.173Z,95948.28
2023-01-01T12:27:26.333Z,95949.06
2023-01-01T12:30:04.987Z,95947.69
2023-01-01T12:32:48.497Z,95946.66
2023-01-01T12:35:27.467Z,95932.81
2023-01-01T12:38:04.480Z,95930.72
2023-01-01T12:40:40.625Z,95928.53
2023-01-01T12:43:11.880Z,95935.03
2023-01-01T12:46:06.975Z,95928.34
2023-01-01T12:48:51.508Z,95926.53
2023-01-01T12:51:32.174Z,95928.47
2023-01-01T12:54:29.415Z,95918.69
2023-01-01T12:57:04.932Z,95918.56
2023-01-01T12:59:35.612Z,95925.47
2023-01-01T13:02:15.419Z,95919.72
2023-01-01T13:04:44.721Z,95927.16
2023-01-01T13:07:15.061Z,95933.53
2023-01-01T13:09:48.266Z,95930.53
2023-01-01T13:12:18.876Z,95932.94
2023-01-01T13:14:49.784Z,95939.91
2023-01-01T13:17:23.509Z,95934.16
2023-01-01T13:20:00.536Z,95933.44
2023-01-01T13:22:42.104Z,95936.28
2023-01-01T13:25:30.776Z,95945.13
2023-01-01T13:28:11.816Z,95938.75
2023-01-01T13:30:50.649Z,95934.28
2023-01-01T13:33:27.255Z,95938.38
2023-01-01T13:36:28.495Z,95935.94
2023-01-01T13:38:57.257Z,95932.75
2023-01-01T13:41:35.652Z,95931.94
2023-01-01T13:44:19.522Z,95933.28
2023-01-01T13:47:04.196Z,95941.91
2023-01-01T13:49:48.228Z,95937.72
2023-01-01T13:52:44.267Z,95939.63
2023-01-01T13:55:59.525Z,95940.00
2023-01-01T13:58:55.491Z,95930.53
2023-01-01T14:01:49.027Z,95933.66
2023-01-01T14:04:33.710Z,95933.75
2023-01-01T14:07:40.903Z,95932.25
2023-01-01T14:10:20.320Z,95927.91
2023-01-01T14:12:48.335Z,95923.41
2023-01-01T14:15:18.406Z,95927.44
2023-01-01T14:17:46.385Z,95926.19
2023-01-01T14:20:19.893Z,95929.03
2023-01-01T14:22:51.787Z,95931.16
2023-01-01T14:25:26.813Z,95943.91
2023-01-01T14:27:55.909Z,95939.06
2023-01-01T14:30:23.902Z,95936.66
2023-01-01T14:32:57.828Z,95938.59
2023-01-01T14:35:25.974Z,95943.28
2023-01-01T14:37:55.288Z,95944.09
2023-01-01T14:40:28.325Z,95952.75
2023-01-01T14:43:01.063Z,95949.72
2023-01-01T14:45:31.111Z,95954.47
2023-01-01T14:47:59.242Z,95955.72
2023-01-01T14:50:30.997Z,95963.78
2023-01-01T14:53:05.191Z,95958.84
2023-01-01T14:55:40.241Z,95957.91
2023-01-01T14:58:13.731Z,95961.53
2023-01-01T15:00:41.603Z,95961.78
2023-01-01T15:03:15.120Z,95968.72
2023-01-01T15:05:44.941Z,95971.09
2023-01-01T15:08:23.095Z,95968.75
2023-01-01T15:10:51.618Z,95969.06
2023-01-01T15:13:21.171Z,95974.97
2023-01-01T15:15:50.651Z,95978.41
2023-01-01T15:18:43.110Z,95976.34
2023-01-01T15:21:25.024Z,95968.13
2023-01-01T15:23:57.367Z,95969.22
2023-01-01T15:26:30.872Z,95977.84
2023-01-01T15:29:00.743Z,95987.28
2023-01-01T15:31:37.499Z,95980.38
2023-01-01T15:34:06.008Z,95980.00
2023-01-01T15:36:34.347Z,95977.94
2023-01-01T15:39:03.669Z,95985.34
2023-01-01T15:41:43.354Z,95988.13
2023-01-01T15:44:22.532Z,95975.97
2023-01-01T15:46:52.718Z,95989.59
2023-01-01T15:49:25.780Z,95987.44
2023-01-01T15:51:55.382Z,95990.44
2023-01-01T15:54:24.982Z,95983.66
2023-01-01T15:56:53.102Z,95989.09
2023-01-01T15:59:28.683Z,95985.59
2023-01-01T16:02:04.381Z,95988.56
2023-01-01T16:04:32.735Z,95986.97
2023-01-01T16:07:01.140Z,95991.56
2023-01-01T16:09:30.232Z,95995.84
2023-01-01T16:11:59.368Z,95995.81
2023-01-01T16:14:27.736Z,95999.59
2023-01-01T16:17:00.861Z,95997.66
2023-01-01T16:19:31.737Z,95998.44
2023-01-01T16:21:59.501Z,96002.47
2023-01-01T16:24:27.477Z,96002.22
2023-01-01T16:26:56.639Z,95999.69
2023-01-01T16:29:24.399Z,95996.44
2023-01-01T16:31:52.871Z,95995.28
2023-01-01T16:34:20.669Z,95988.16
2023-01-01T16:36:49.283Z,95984.63
2023-01-01T16:39:17.225Z,95987.00
2023-01-01T16:41:45.941Z,95987.19
2023-01-01T16:44:15.789Z,95987.41
2023-01-01T16:46:44.170Z,95985.22
2023-01-01T16:49:12.171Z,95986.28
2023-01-01T16:51:43.835Z,95980.00
2023-01-01T16:54:12.677Z,95985.13
2023-01-01T16:56:40.855Z,95982.34
2023-01-01T16:59:08.824Z,95980.41
2023-01-01T17:01:38.249Z,95990.09
2023-01-01T17:04:06.354Z,95984.94
2023-01-01T17:06:34.762Z,95984.06
2023-01-01T17:09:02.761Z,95980.19
2023-01-01T17:11:30.673Z,95980.97
2023-01-01T17:14:03.499Z,95983.63
2023-01-01T17:16:39.138Z,95984.88
2023-01-01T17:19:15.600Z,95992.97
2023-01-01T17:21:47.638Z,95988.56
2023-01-01T17:24:16.571Z,95993.72
2023-01-01T17:26:44.923Z,95989.63
2023-01-01T17:29:13.292Z,95978.84
2023-01-01T17:31:41.500Z,95980.31
2023-01-01T17:34:14.595Z,95979.59
2023-01-01T17:36:43.599Z,95971.09
2023-01-01T17:39:11.874Z,95971.47
2023-01-01T17:41:40.063Z,95968.31
2023-01-01T17:44:08.980Z,95960.72
2023-01-01T17:46:37.477Z,95959.03
2023-01-01T17:49:06.399Z,95962.56
2023-01-01T17:51:35.568Z,95967.09
2023-01-01T17:54:04.728Z,95962.09
2023-01-01T17:56:32.690Z,95966.78
2023-01-01T17:59:00.524Z,95965.06
2023-01-01T18:01:32.123Z,95961.16
2023-01-01T18:04:02.165Z,95951.19
2023-01-01T18:06:32.044Z,95956.31
2023-01-01T18:09:07.492Z,95941.75
2023-01-01T18:11:35.821Z,95937.25
2023-01-01T18:14:04.743Z,95932.22
2023-01-01T18:16:34.750Z,95938.81
2023-01-01T18:19:04.296Z,95945.47
2023-01-01T18:21:33.235Z,95949.34
2023-01-01T18:24:02.722Z,95950.88
2023-01-01T18:26:32.288Z,95945.16
2023-01-01T18:29:02.361Z,95955.56
2023-01-01T18:31:32.316Z,95942.56
2023-01-01T18:34:01.896Z,95946.41
2023-01-01T18:36:32.183Z,95946.03
2023-01-01T18:39:03.531Z,95937.28
2023-01-01T18:41:53.782Z,95934.09
2023-01-01T18:44:23.166Z,95928.69
2023-01-01T18:46:55.852Z,95926.53
2023-01-01T18:49:25.233Z,95929.50
2023-01-01T18:51:57.192Z,95924.84
2023-01-01T18:54:27.014Z,95920.72
2023-01-01T18:57:04.052Z,95925.59
2023-01-01T18:59:33.136Z,95928.31
2023-01-01T19:02:01.756Z,95920.72
2023-01-01T19:04:30.091Z,95923.63
2023-01-01T19:06:58.378Z,95928.69
2023-01-01T19:09:28.024Z,95918.53
2023-01-01T19:11:58.038Z,95926.38
2023-01-01T19:14:28.871Z,95928.09
2023-01-01T19:16:59.116Z,95927.81
2023-01-01T19:19:30.827Z,95927.84
2023-01-01T19:22:07.962Z,95929.84
2023-01-01T19:24:37.885Z,95926.41
2023-01-01T19:27:14.703Z,95930.75
2023-01-01T19:29:45.145Z,95930.03
2023-01-01T19:32:13.271Z,95933.41
2023-01-01T19:34:41.654Z,95937.84
2023-01-01T19:37:11.045Z,95923.13
2023-01-01T19:39:40.394Z,95932.47
2023-01-01T19:42:08.869Z,95941.03
2023-01-01T19:44:37.596Z,95932.28
2023-01-01T19:47:05.850Z,95927.47
2023-01-01T19:49:33.937Z,95924.38
2023-01-01T19:52:03.740Z,95920.53
2023-01-01T19:54:31.898Z,95918.91
2023-01-01T19:57:01.394Z,95910.00
2023-01-01T19:59:33.284Z,95907.66
2023-01-01T20:04:51.237Z,95911.50
2023-01-01T20:07:19.956Z,95889.38
2023-01-01T20:09:48.522Z,95892.63
2023-01-01T20:12:18.219Z,95882.13
2023-01-01T20:14:46.666Z,95884.84
2023-01-01T20:17:15.200Z,95881.63
2023-01-01T20:19:43.768Z,95892.28
2023-01-01T20:22:15.366Z,95887.81
2023-01-01T20:24:45.001Z,95886.41
2023-01-01T20:27:14.946Z,95885.03
2023-01-01T20:29:45.560Z,95892.09
2023-01-01T20:32:15.517Z,95885.75
2023-01-01T20:34:44.116Z,95881.94
2023-01-01T20:37:29.713Z,95879.47
2023-01-01T20:39:58.128Z,95882.75
2023-01-01T20:42:27.623Z,95889.38
2023-01-01T20:44:57.408Z,95884.97
2023-01-01T20:47:26.107Z,95887.56
2023-01-01T20:49:54.670Z,95881.78
2023-01-01T20:52:23.209Z,95883.25
2023-01-01T20:54:52.267Z,95875.41
2023-01-01T20:57:21.150Z,95869.63
2023-01-01T20:59:49.753Z,95874.19
2023-01-01T21:02:19.671Z,95879.72
2023-01-01T21:04:47.914Z,95877.03
2023-01-01T21:07:15.949Z,95871.81
2023-01-01T21:09:44.357Z,95862.75
2023-01-01T21:12:12.994Z,95866.19
2023-01-01T21:14:40.863Z,95866.06
2023-01-01T21:17:21.375Z,95881.50
2023-01-01T21:19:50.302Z,95875.09
2023-01-01T21:22:18.617Z,95877.72
2023-01-01T21:24:51.818Z,95885.78
2023-01-01T21:27:25.703Z,95878.69
2023-01-01T21:29:57.598Z,95890.72
2023-01-01T21:32:34.415Z,95893.53
2023-01-01T21:35:02.589Z,95914.34
2023-01-01T21:37:51.321Z,95905.47
2023-01-01T21:40:32.605Z,95906.63
2023-01-01T21:43:14.514Z,95906.38
2023-01-01T21:45:45.610Z,95916.38
2023-01-01T21:48:17.494Z,95906.81
2023-01-01T21:50:48.707Z,95911.47
2023-01-01T21:53:19.277Z,95912.41
2023-01-01T21:55:55.123Z,95918.13
2023-01-01T21:58:42.951Z,95916.66
2023-01-01T22:01:21.057Z,95905.13
2023-01-01T22:03:58.211Z,95911.31
2023-01-01T22:06:32.954Z,95896.28
2023-01-01T22:09:02.450Z,95904.22
2023-01-01T22:11:30.929Z,95906.84
2023-01-01T22:13:58.667Z,95908.38
2023-01-01T22:16:29.842Z,95890.38
2023-01-01T22:19:01.015Z,95908.25
2023-01-01T22:21:28.767Z,95888.16
2023-01-01T22:24:00.591Z,95895.28
2023-01-01T22:26:31.176Z,95882.72
2023-01-01T22:29:00.892Z,95884.03
2023-01-01T22:31:32.257Z,95882.84
2023-01-01T22:34:04.508Z,95879.72
2023-01-01T22:36:36.073Z,95878.66
2023-01-01T22:39:10.748Z,95872.72
2023-01-01T22:41:38.632Z,95868.41
2023-01-01T22:44:06.763Z,95866.41
2023-01-01T22:46:37.863Z,95866.66
2023-01-01T22:49:18.407Z,95864.34
2023-01-01T22:51:47.444Z,95871.44
2023-01-01T22:54:15.412Z,95865.03
2023-01-01T23:02:32.797Z,95880.66
2023-01-01T23:05:00.860Z,95887.44
2023-01-01T23:07:29.450Z,95880.78
2023-01-01T23:09:58.267Z,95875.06
2023-01-01T23:12:26.022Z,95873.66
2023-01-01T23:15:11.263Z,95869.13
2023-01-01T23:17:40.407Z,95875.53
2023-01-01T23:20:09.715Z,95872.50
2023-01-01T23:22:40.227Z,95872.13
2023-01-01T23:25:11.327Z,95866.31
2023-01-01T23:27:39.697Z,95872.00
2023-01-01T23:30:08.358Z,95875.59
2023-01-01T23:32:37.131Z,95872.44
2023-01-01T23:35:07.153Z,95871.84
2023-01-01T23:37:35.261Z,95871.38
2023-01-01T23:40:03.202Z,95858.66
2023-01-01T23:42:31.037Z,95857.09
2023-01-01T23:44:58.748Z,95852.91
2023-01-01T23:47:26.496Z,95858.84
2023-01-01T23:49:54.192Z,95851.03
2023-01-01T23:52:23.396Z,95857.66
2023-01-01T23:54:51.221Z,95852.75
2023-01-01T23:57:18.927Z,95839.38
2023-01-01T23:59:46.721Z,95836.69
